Time;durP1;ratioP1;P1;durP2;ratioP2;P2;SDS_P1;SDS_P2;PMS_P1;PMS_P2;Temp;Humidity;BMP_temperature;BMP_pressure;BME280_temperature;BME280_humidity;BME280_pressure;Samples;Min_cycle;Max_cycle;Signal;HPM_P1;HPM_P2
2021/12/01 00:00:49;;;;;;;19.63;3.88;;;;;;;8.08;100.00;98477.28;5008917;28;20054;-90
2021/12/01 00:03:16;;;;;;;24.25;4.70;;;;;;;8.17;100.00;98477.53;4996416;28;20054;-89
2021/12/01 00:05:45;;;;;;;14.88;4.25;;;;;;;8.08;100.00;98480.72;4992777;28;20046;-90
2021/12/01 00:08:11;;;;;;;24.40;4.90;;;;;;;8.20;100.00;98488.69;4996890;28;20042;-90
2021/12/01 00:10:39;;;;;;;15.65;3.10;;;;;;;8.10;100.00;98470.22;4991841;28;20085;-90
2021/12/01 00:13:09;;;;;;;16.23;4.65;;;;;;;8.20;100.00;98486.94;4994026;28;20049;-89
2021/12/01 00:15:37;;;;;;;23.67;3.83;;;;;;;8.13;100.00;98490.88;4994456;28;20050;-90
2021/12/01 00:18:04;;;;;;;18.75;3.53;;;;;;;7.80;100.00;98490.25;4982872;28;20053;-90
2021/12/01 00:20:31;;;;;;;17.52;4.03;;;;;;;7.86;100.00;98469.97;4986750;28;20141;-90
2021/12/01 00:22:59;;;;;;;17.20;3.33;;;;;;;8.11;100.00;98471.88;5005621;28;20439;-89
2021/12/01 00:25:26;;;;;;;18.00;3.50;;;;;;;7.94;100.00;98470.34;5008634;28;20060;-89
2021/12/01 00:27:55;;;;;;;16.02;3.88;;;;;;;8.08;100.00;98467.69;4991724;28;20061;-90
2021/12/01 00:30:22;;;;;;;31.77;5.13;;;;;;;7.91;100.00;98428.84;4991697;28;20412;-89
2021/12/01 00:32:53;;;;;;;15.07;3.65;;;;;;;7.75;100.00;98416.78;4991739;28;20125;-90
2021/12/01 00:35:20;;;;;;;16.10;4.13;;;;;;;7.69;100.00;98427.59;4995744;28;20744;-89
2021/12/01 00:37:47;;;;;;;20.58;4.57;;;;;;;7.76;100.00;98433.25;5001774;28;20054;-89
2021/12/01 00:40:14;;;;;;;15.35;3.92;;;;;;;7.77;100.00;98422.75;4990787;28;20133;-89
2021/12/01 00:42:42;;;;;;;23.75;4.40;;;;;;;7.93;100.00;98446.06;4992219;28;20053;-90
2021/12/01 00:45:17;;;;;;;19.17;3.50;;;;;;;7.93;100.00;98422.63;5002626;28;20047;-90
2021/12/01 00:47:54;;;;;;;18.80;3.75;;;;;;;8.22;100.00;98440.75;4989072;28;20055;-90
2021/12/01 00:50:34;;;;;;;21.85;3.83;;;;;;;8.04;100.00;98431.50;5001327;28;20054;-89
2021/12/01 00:53:04;;;;;;;18.52;3.20;;;;;;;8.16;100.00;98438.53;4998752;28;20050;-89
2021/12/01 00:55:32;;;;;;;17.75;3.42;;;;;;;8.00;100.00;98433.47;5003192;28;20508;-89
2021/12/01 00:57:59;;;;;;;17.95;3.40;;;;;;;8.12;100.00;98430.06;4988973;28;20065;-89
2021/12/01 01:00:28;;;;;;;13.20;3.08;;;;;;;8.08;100.00;98383.47;4985473;28;20058;-89
2021/12/01 01:02:56;;;;;;;26.00;6.03;;;;;;;8.06;100.00;98414.84;4999663;28;20048;-90
2021/12/01 01:05:24;;;;;;;15.38;3.13;;;;;;;7.97;100.00;98395.41;5000092;28;20049;-90
2021/12/01 01:07:52;;;;;;;20.73;4.40;;;;;;;7.62;100.00;98370.78;4991825;28;20403;-89
2021/12/01 01:18:36;;;;;;;18.63;3.28;;;;;;;7.84;100.00;98391.09;4986992;28;20138;-90
2021/12/01 01:21:04;;;;;;;17.13;3.22;;;;;;;7.89;100.00;98350.78;4999190;28;20050;-90
2021/12/01 01:23:33;;;;;;;18.05;4.53;;;;;;;8.02;100.00;98382.09;4991481;28;20081;-89
2021/12/01 01:26:02;;;;;;;18.80;3.80;;;;;;;7.66;100.00;98357.44;4988811;28;20495;-89
2021/12/01 01:28:29;;;;;;;15.00;3.97;;;;;;;7.72;100.00;98346.66;4998824;28;20391;-89
2021/12/01 01:30:56;;;;;;;14.70;3.47;;;;;;;7.78;100.00;98345.44;4997208;28;20051;-90
2021/12/01 01:33:22;;;;;;;36.60;8.20;;;;;;;7.83;100.00;98359.00;4991674;28;20051;-89
2021/12/01 01:35:50;;;;;;;18.70;4.15;;;;;;;8.06;100.00;98341.03;4983912;28;20057;-89
2021/12/01 01:38:17;;;;;;;16.08;3.30;;;;;;;7.80;100.00;98357.41;4991513;28;20420;-88
2021/12/01 01:40:44;;;;;;;20.25;3.95;;;;;;;7.95;100.00;98367.78;4987687;28;20057;-89
2021/12/01 01:43:11;;;;;;;17.83;3.28;;;;;;;7.88;100.00;98376.91;4996030;28;20669;-89
2021/12/01 01:45:39;;;;;;;17.35;5.10;;;;;;;7.85;100.00;98379.75;4992983;28;20062;-90
2021/12/01 01:48:13;;;;;;;22.30;4.38;;;;;;;7.76;100.00;98375.94;5001528;28;20052;-89
2021/12/01 01:50:43;;;;;;;17.90;3.30;;;;;;;7.58;100.00;98370.97;4999475;28;20056;-89
2021/12/01 01:53:17;;;;;;;21.10;3.63;;;;;;;7.68;100.00;98366.00;4993044;28;20452;-90
2021/12/01 01:55:51;;;;;;;20.00;4.50;;;;;;;7.78;100.00;98361.06;4998577;28;20395;-90
2021/12/01 01:58:19;;;;;;;18.35;3.17;;;;;;;7.72;100.00;98383.13;5004167;28;20060;-89
2021/12/01 02:00:51;;;;;;;21.55;3.95;;;;;;;7.55;100.00;98324.28;4996562;28;20046;-90
2021/12/01 02:03:21;;;;;;;17.00;3.53;;;;;;;7.73;100.00;98379.56;5004946;28;20469;-89
2021/12/01 02:05:49;;;;;;;19.15;3.40;;;;;;;7.70;100.00;98347.69;4993009;28;20066;-90
2021/12/01 02:08:20;;;;;;;21.60;4.03;;;;;;;7.71;100.00;98380.63;4994861;28;20137;-90
2021/12/01 02:10:49;;;;;;;15.50;4.75;;;;;;;7.57;100.00;98381.47;4993011;28;20062;-90
2021/12/01 02:13:17;;;;;;;17.58;3.97;;;;;;;7.78;100.00;98379.28;4994612;28;20084;-89
2021/12/01 02:15:46;;;;;;;16.60;3.55;;;;;;;7.72;100.00;98367.50;4994120;28;20074;-90
2021/12/01 02:18:13;;;;;;;16.95;5.20;;;;;;;7.78;100.00;98363.66;5014675;28;20476;-91
2021/12/01 02:20:56;;;;;;;16.10;3.17;;;;;;;7.71;100.00;98336.34;4997345;28;20469;-90
2021/12/01 02:23:23;;;;;;;19.33;3.80;;;;;;;7.66;100.00;98357.44;4983995;28;20443;-90
2021/12/01 02:25:50;;;;;;;14.13;3.08;;;;;;;7.51;100.00;98366.25;4992562;28;20047;-91
2021/12/01 02:28:17;;;;;;;13.88;2.85;;;;;;;7.40;100.00;98364.28;5000186;28;20132;-91
2021/12/01 02:30:43;;;;;;;18.80;3.72;;;;;;;7.81;100.00;98355.66;4998475;28;20049;-90
2021/12/01 02:33:10;;;;;;;14.90;3.55;;;;;;;7.77;100.00;98380.22;5001979;28;20100;-90
2021/12/01 02:35:38;;;;;;;21.77;3.65;;;;;;;7.69;100.00;98378.09;4983419;28;20050;-90
2021/12/01 02:38:05;;;;;;;19.50;3.45;;;;;;;7.56;100.00;98385.00;5007237;28;20053;-91
2021/12/01 02:40:33;;;;;;;20.40;2.92;;;;;;;7.49;100.00;98383.72;5006105;28;20510;-90
2021/12/01 02:43:00;;;;;;;18.75;3.28;;;;;;;7.40;100.00;98382.53;4994349;28;20047;-89
2021/12/01 02:45:27;;;;;;;14.60;2.53;;;;;;;7.45;100.00;98398.69;5001098;28;20053;-89
2021/12/01 02:47:53;;;;;;;12.80;2.78;;;;;;;7.56;100.00;98380.66;4994335;28;20062;-89
2021/12/01 02:50:20;;;;;;;12.30;2.38;;;;;;;7.33;100.00;98381.22;4993009;28;20506;-89
2021/12/01 02:52:47;;;;;;;12.70;2.80;;;;;;;7.39;100.00;98373.88;4987006;28;20050;-89
2021/12/01 02:55:19;;;;;;;10.25;2.20;;;;;;;7.08;100.00;98322.88;4993626;28;20050;-90
2021/12/01 02:57:51;;;;;;;12.13;2.78;;;;;;;7.48;100.00;98362.06;4980902;28;20053;-89
2021/12/01 03:00:21;;;;;;;12.47;2.50;;;;;;;7.43;100.00;98382.34;4990742;28;20097;-89
2021/12/01 03:02:49;;;;;;;9.18;2.10;;;;;;;7.50;100.00;98393.22;5009448;28;20404;-91
2021/12/01 03:05:16;;;;;;;16.95;2.05;;;;;;;7.84;100.00;98404.09;4993855;28;20480;-90
2021/12/01 03:07:44;;;;;;;11.00;2.55;;;;;;;7.90;100.00;98404.56;4993854;28;20066;-90
2021/12/01 03:10:12;;;;;;;11.52;1.83;;;;;;;7.90;100.00;98421.97;5009098;28;20085;-89
2021/12/01 03:12:41;;;;;;;11.25;1.95;;;;;;;7.51;100.00;98402.72;4994098;28;20077;-90
2021/12/01 03:15:11;;;;;;;6.55;1.75;;;;;;;7.66;100.00;98426.94;4991580;28;20051;-90
2021/12/01 03:17:38;;;;;;;6.47;1.80;;;;;;;7.74;100.00;98404.69;4993750;28;20062;-90
2021/12/01 03:20:11;;;;;;;8.95;2.10;;;;;;;7.74;100.00;98427.31;4996435;28;20050;-89
2021/12/01 03:22:37;;;;;;;13.00;2.07;;;;;;;7.62;100.00;98407.25;5000477;28;20046;-90
2021/12/01 03:25:09;;;;;;;9.13;1.70;;;;;;;7.67;100.00;98421.66;5013344;28;20280;-89
2021/12/01 03:27:36;;;;;;;8.35;1.73;;;;;;;7.62;100.00;98395.06;4999128;28;20046;-90
2021/12/01 03:30:07;;;;;;;11.30;2.67;;;;;;;7.85;100.00;98422.25;5005298;28;20054;-90
2021/12/01 03:32:34;;;;;;;6.43;1.70;;;;;;;8.00;100.00;98430.84;4985936;28;20177;-88
2021/12/01 03:35:05;;;;;;;8.60;1.92;;;;;;;7.95;100.00;98431.16;4996510;28;20384;-89
2021/12/01 03:37:32;;;;;;;8.30;1.90;;;;;;;7.79;100.00;98404.38;4993691;28;20050;-90
2021/12/01 03:39:59;;;;;;;13.13;2.00;;;;;;;8.00;100.00;98443.88;4988560;28;20046;-89
2021/12/01 03:42:27;;;;;;;5.40;1.50;;;;;;;7.72;100.00;98418.72;4987246;28;20489;-87
2021/12/01 03:44:55;;;;;;;7.55;1.80;;;;;;;7.72;100.00;98460.41;4993045;28;20460;-87
2021/12/01 03:47:26;;;;;;;6.55;1.50;;;;;;;7.72;100.00;98471.69;4986484;28;20859;-85
2021/12/01 03:49:54;;;;;;;5.28;1.38;;;;;;;7.52;100.00;98479.88;4973352;28;20047;-84
2021/12/01 03:52:23;;;;;;;5.00;1.30;;;;;;;7.24;100.00;98432.09;5000787;28;20075;-85
2021/12/01 03:54:50;;;;;;;12.13;2.10;;;;;;;7.59;100.00;98481.19;4992101;28;20046;-85
2021/12/01 03:57:17;;;;;;;6.88;1.90;;;;;;;7.36;100.00;98509.44;4993648;28;20054;-86
2021/12/01 03:59:44;;;;;;;9.98;1.90;;;;;;;7.47;100.00;98510.56;4992247;28;20408;-86
2021/12/01 04:02:11;;;;;;;11.27;1.98;;;;;;;7.47;100.00;98501.00;4991107;28;20056;-87
2021/12/01 04:04:39;;;;;;;7.57;1.55;;;;;;;7.42;100.00;98516.06;4993267;28;20133;-87
2021/12/01 04:07:05;;;;;;;7.95;1.67;;;;;;;7.38;100.00;98519.75;4992297;28;20042;-87
2021/12/01 04:09:34;;;;;;;8.85;1.90;;;;;;;6.95;100.00;98538.75;4999022;28;20477;-87
2021/12/01 04:12:02;;;;;;;9.00;1.70;;;;;;;7.06;100.00;98535.50;4993807;28;20069;-87
2021/12/01 04:14:28;;;;;;;9.88;2.00;;;;;;;6.90;100.00;98521.72;4986826;28;20057;-87
2021/12/01 04:16:55;;;;;;;8.57;1.80;;;;;;;6.99;100.00;98524.66;5005441;28;20130;-88
2021/12/01 04:19:22;;;;;;;10.48;1.83;;;;;;;6.57;100.00;98497.56;4984916;28;20061;-87
2021/12/01 04:21:49;;;;;;;6.88;1.63;;;;;;;7.02;100.00;98560.88;4994262;28;20056;-88
2021/12/01 04:24:16;;;;;;;12.20;1.48;;;;;;;6.44;100.00;98507.81;4994760;28;20075;-87
2021/12/01 04:26:43;;;;;;;9.65;1.70;;;;;;;6.89;100.00;98546.91;4991989;28;20050;-87
2021/12/01 04:29:10;;;;;;;11.23;1.45;;;;;;;6.70;100.00;98525.50;4991690;28;20046;-88
2021/12/01 04:31:40;;;;;;;6.88;1.67;;;;;;;6.66;100.00;98571.63;4990381;28;20100;-87
2021/12/01 04:34:07;;;;;;;9.27;1.60;;;;;;;6.70;100.00;98586.13;4981794;28;20049;-88
2021/12/01 04:36:38;;;;;;;10.52;4.10;;;;;;;6.76;100.00;98588.38;4989572;28;20488;-88
2021/12/01 04:39:08;;;;;;;10.32;1.80;;;;;;;6.61;100.00;98605.69;4988196;28;20050;-89
2021/12/01 04:41:49;;;;;;;8.13;1.55;;;;;;;6.68;100.00;98608.78;4989055;28;20129;-89
2021/12/01 04:44:18;;;;;;;6.75;1.75;;;;;;;6.75;100.00;98615.31;4994807;28;20045;-88
2021/12/01 04:46:46;;;;;;;7.47;1.80;;;;;;;6.59;100.00;98611.91;4993297;28;20046;-88
2021/12/01 04:49:19;;;;;;;5.70;1.45;;;;;;;6.40;100.00;98614.66;4991420;28;20105;-89
2021/12/01 04:51:51;;;;;;;9.90;1.65;;;;;;;6.46;100.00;98630.78;4986940;28;20050;-89
2021/12/01 04:54:18;;;;;;;5.88;1.50;;;;;;;6.17;100.00;98588.16;5002466;28;20053;-89
2021/12/01 04:56:46;;;;;;;10.30;1.75;;;;;;;6.57;100.00;98624.97;4990895;28;20054;-89
2021/12/01 04:59:18;;;;;;;9.85;2.20;;;;;;;6.67;100.00;98632.28;4990776;28;20046;-89
2021/12/01 05:01:45;;;;;;;15.55;2.72;;;;;;;6.40;100.00;98641.47;4989454;28;20050;-89
2021/12/01 05:04:12;;;;;;;12.82;1.90;;;;;;;6.54;100.00;98642.50;5006787;28;20058;-89
2021/12/01 05:06:39;;;;;;;15.27;2.13;;;;;;;6.47;100.00;98647.19;4984870;28;20057;-90
2021/12/01 05:09:08;;;;;;;10.27;1.80;;;;;;;6.45;100.00;98647.28;4991327;28;20548;-88
2021/12/01 05:11:35;;;;;;;8.75;1.85;;;;;;;6.44;100.00;98657.75;4980298;28;20050;-89
2021/12/01 05:14:10;;;;;;;10.93;1.70;;;;;;;6.17;100.00;98644.47;4988774;28;20053;-88
2021/12/01 05:16:39;;;;;;;7.35;1.52;;;;;;;6.11;100.00;98652.59;4989373;28;20050;-89
2021/12/01 05:19:10;;;;;;;8.52;1.90;;;;;;;6.02;100.00;98670.34;4986084;28;20046;-88
2021/12/01 05:21:41;;;;;;;14.07;2.35;;;;;;;6.17;100.00;98655.72;4987376;28;20056;-89
2021/12/01 05:24:08;;;;;;;9.93;2.08;;;;;;;6.22;100.00;98674.50;4992226;28;20394;-89
2021/12/01 05:26:36;;;;;;;6.47;1.30;;;;;;;6.19;100.00;98690.25;4988294;28;20093;-88
2021/12/01 05:29:05;;;;;;;4.55;1.33;;;;;;;6.27;100.00;98684.66;4993713;28;21360;-89
2021/12/01 05:31:33;;;;;;;5.80;1.50;;;;;;;6.10;100.00;98701.13;5003262;28;20057;-90
2021/12/01 05:34:00;;;;;;;6.97;1.63;;;;;;;6.14;100.00;98691.41;4996365;28;20683;-90
2021/12/01 05:36:27;;;;;;;4.35;1.38;;;;;;;6.04;100.00;98693.66;4995167;28;20058;-90
2021/12/01 05:38:54;;;;;;;6.70;1.40;;;;;;;6.01;100.00;98688.63;5004030;28;20063;-90
2021/12/01 05:41:21;;;;;;;5.38;1.30;;;;;;;5.98;100.00;98717.34;5002797;28;20373;-90
2021/12/01 05:43:49;;;;;;;12.07;2.13;;;;;;;6.00;100.00;98712.91;5004834;28;20076;-90
2021/12/01 05:46:16;;;;;;;5.43;1.38;;;;;;;6.12;100.00;98734.81;4993071;28;20409;-90
2021/12/01 05:48:43;;;;;;;5.80;2.13;;;;;;;6.11;100.00;98715.81;4995132;28;20100;-90
2021/12/01 05:51:10;;;;;;;6.53;1.55;;;;;;;6.05;100.00;98724.72;5009199;28;20045;-89
2021/12/01 05:53:37;;;;;;;4.85;1.40;;;;;;;5.94;100.00;98740.00;5008050;28;20562;-87
2021/12/01 05:56:04;;;;;;;8.88;1.60;;;;;;;5.78;100.00;98747.72;4989119;28;20973;-89
2021/12/01 05:58:31;;;;;;;6.07;1.30;;;;;;;5.82;100.00;98756.19;4993631;28;20164;-89
2021/12/01 06:00:58;;;;;;;4.25;1.20;;;;;;;5.85;100.00;98769.03;5003349;28;20054;-90
2021/12/01 06:03:25;;;;;;;3.50;1.20;;;;;;;5.73;100.00;98764.44;5011718;28;20055;-89
2021/12/01 06:05:52;;;;;;;3.17;1.13;;;;;;;5.93;100.00;98764.28;4989697;28;20056;-90
2021/12/01 06:08:19;;;;;;;2.75;1.35;;;;;;;5.27;100.00;98716.44;5010174;28;20049;-89
2021/12/01 06:10:45;;;;;;;3.88;1.30;;;;;;;5.77;100.00;98795.41;5002843;28;20501;-89
2021/12/01 06:13:16;;;;;;;2.08;1.20;;;;;;;5.97;100.00;98801.41;4990624;28;20050;-90
2021/12/01 06:15:46;;;;;;;6.13;1.67;;;;;;;5.56;100.00;98781.69;4991294;28;20484;-90
2021/12/01 06:18:13;;;;;;;4.68;1.20;;;;;;;5.83;100.00;98782.09;4991515;28;20058;-89
2021/12/01 06:20:40;;;;;;;4.43;1.10;;;;;;;5.66;100.00;98795.91;4987402;28;20055;-90
2021/12/01 06:23:07;;;;;;;3.47;1.10;;;;;;;5.55;100.00;98831.94;4986558;28;20061;-90
2021/12/01 06:25:34;;;;;;;7.05;1.30;;;;;;;5.61;100.00;98830.78;4994223;28;20050;-90
2021/12/01 06:28:01;;;;;;;6.18;1.40;;;;;;;5.47;100.00;98826.25;5005412;28;20145;-90
2021/12/01 06:30:32;;;;;;;12.63;1.65;;;;;;;5.44;100.00;98840.22;4991828;28;20054;-89
2021/12/01 06:33:00;;;;;;;7.57;1.48;;;;;;;5.74;100.00;98855.25;4995371;28;20051;-90
2021/12/01 06:35:27;;;;;;;3.30;1.20;;;;;;;5.86;100.00;98859.00;5007872;28;20070;-90
2021/12/01 06:37:55;;;;;;;4.72;2.00;;;;;;;5.90;100.00;98852.78;4991772;28;20046;-90
2021/12/01 06:40:25;;;;;;;3.75;1.40;;;;;;;5.25;100.00;98857.56;4988707;28;20054;-88
2021/12/01 06:42:53;;;;;;;6.70;1.40;;;;;;;5.67;100.00;98874.66;4993622;28;20386;-90
2021/12/01 06:45:21;;;;;;;5.78;1.35;;;;;;;5.47;100.00;98852.19;4995274;28;20049;-90
2021/12/01 06:47:48;;;;;;;3.28;1.48;;;;;;;5.55;100.00;98904.63;4991012;28;20050;-90
2021/12/01 06:50:18;;;;;;;4.80;1.30;;;;;;;5.55;100.00;98890.81;5005709;28;20061;-90
2021/12/01 06:52:46;;;;;;;7.63;1.58;;;;;;;5.04;100.00;98878.34;4994626;28;20122;-89
2021/12/01 06:55:13;;;;;;;10.43;1.63;;;;;;;5.05;100.00;98868.84;4988805;28;20058;-89
2021/12/01 06:57:40;;;;;;;2.08;1.10;;;;;;;5.20;100.00;98906.22;4989841;28;20060;-90
2021/12/01 07:00:10;;;;;;;3.35;1.25;;;;;;;4.78;100.00;98887.31;4993003;28;20057;-91
2021/12/01 07:02:37;;;;;;;5.30;1.20;;;;;;;5.10;100.00;98911.81;4993182;28;20047;-91
2021/12/01 07:05:05;;;;;;;4.05;1.20;;;;;;;4.99;100.00;98885.50;4990470;28;20133;-90
2021/12/01 07:07:32;;;;;;;6.35;1.60;;;;;;;5.14;100.00;98931.53;5001588;28;20096;-91
2021/12/01 07:09:59;;;;;;;6.55;1.30;;;;;;;5.04;100.00;98900.88;5005647;28;20397;-91
2021/12/01 07:12:26;;;;;;;5.25;1.20;;;;;;;5.13;100.00;98940.25;4992884;28;20488;-90
2021/12/01 07:14:53;;;;;;;2.85;1.20;;;;;;;5.17;100.00;98948.72;4982266;28;20404;-91
2021/12/01 07:17:20;;;;;;;6.00;1.40;;;;;;;5.30;100.00;98954.22;4992603;28;20054;-90
2021/12/01 07:19:48;;;;;;;5.65;1.40;;;;;;;4.82;100.00;98919.97;5008198;28;20109;-89
2021/12/01 07:22:16;;;;;;;5.00;1.10;;;;;;;4.96;100.00;98950.50;5004179;28;20074;-89
2021/12/01 07:25:27;;;;;;;4.78;1.25;;;;;;;5.25;100.00;98979.50;5006254;28;20464;-90
2021/12/01 07:28:07;;;;;;;9.05;1.92;;;;;;;4.91;100.00;98934.28;5007910;28;20047;-91
2021/12/01 07:30:37;;;;;;;5.38;1.35;;;;;;;5.18;100.00;98949.56;5005573;28;20069;-90
2021/12/01 07:33:18;;;;;;;6.53;1.48;;;;;;;5.09;100.00;98956.81;5010067;28;20046;-89
2021/12/01 07:35:59;;;;;;;7.15;1.50;;;;;;;5.22;100.00;98961.47;4998875;28;20110;-90
2021/12/01 07:38:39;;;;;;;5.07;1.27;;;;;;;4.88;100.00;98948.22;5009300;28;20086;-90
2021/12/01 07:41:21;;;;;;;4.68;1.30;;;;;;;5.28;100.00;99010.53;5005343;28;20081;-92
2021/12/01 07:44:02;;;;;;;9.23;2.10;;;;;;;5.26;100.00;99020.13;5017455;28;20053;-92
2021/12/01 07:46:29;;;;;;;5.30;1.52;;;;;;;5.16;100.00;98996.31;5011689;28;20049;-92
2021/12/01 07:49:10;;;;;;;5.63;1.50;;;;;;;5.26;100.00;99033.13;5005929;28;20054;-90
2021/12/01 07:51:51;;;;;;;6.25;1.58;;;;;;;5.07;100.00;99028.69;5018872;28;20085;-89
2021/12/01 07:54:27;;;;;;;8.43;1.65;;;;;;;4.85;100.00;98996.78;5013788;28;20055;-91
2021/12/01 07:57:08;;;;;;;9.23;1.80;;;;;;;5.26;100.00;99023.56;5014911;28;20046;-91
2021/12/01 07:59:49;;;;;;;9.60;3.05;;;;;;;5.10;100.00;99012.16;5013040;28;20029;-90
2021/12/01 08:02:18;;;;;;;5.25;1.75;;;;;;;4.80;100.00;99015.13;5007688;28;20050;-89
2021/12/01 08:04:59;;;;;;;4.90;1.63;;;;;;;4.86;100.00;99032.19;5002422;28;20043;-87
2021/12/01 08:07:28;;;;;;;6.20;2.28;;;;;;;4.88;100.00;99058.91;5008651;28;20133;-89
2021/12/01 08:10:10;;;;;;;4.65;1.20;;;;;;;4.63;100.00;99009.78;5006656;28;20046;-90
2021/12/01 08:12:51;;;;;;;4.40;1.80;;;;;;;4.69;100.00;99051.00;5016071;28;20580;-90
2021/12/01 08:15:24;;;;;;;9.40;1.50;;;;;;;4.68;100.00;99045.00;5012293;28;20492;-89
2021/12/01 08:18:04;;;;;;;5.85;1.67;;;;;;;4.73;100.00;99031.84;5013490;28;20050;-90
2021/12/01 08:20:36;;;;;;;9.65;3.78;;;;;;;4.61;100.00;99060.88;5010610;28;20110;-90
2021/12/01 08:23:17;;;;;;;5.63;1.60;;;;;;;4.56;100.00;99046.31;5012840;28;20054;-91
2021/12/01 08:25:59;;;;;;;6.03;1.50;;;;;;;4.65;100.00;99076.22;5011946;28;20065;-90
2021/12/01 08:28:42;;;;;;;7.18;1.67;;;;;;;4.68;100.00;99076.09;5012111;28;20038;-90
2021/12/01 08:31:23;;;;;;;9.23;1.95;;;;;;;4.64;100.00;99078.88;5003318;28;20053;-90
2021/12/01 08:34:04;;;;;;;5.80;1.48;;;;;;;4.49;100.00;99103.66;5009175;28;20062;-89
2021/12/01 08:36:46;;;;;;;5.75;1.77;;;;;;;5.02;100.00;99129.19;5024642;28;20069;-90
2021/12/01 08:39:27;;;;;;;7.90;1.58;;;;;;;4.82;100.00;99124.81;5013637;28;20112;-90
2021/12/01 08:42:02;;;;;;;8.95;1.58;;;;;;;4.47;100.00;99095.94;5006563;28;20078;-90
2021/12/01 08:44:32;;;;;;;12.18;2.38;;;;;;;4.66;100.00;99124.59;5006514;28;20571;-89
2021/12/01 08:47:01;;;;;;;6.97;1.70;;;;;;;4.59;100.00;99127.47;4994042;28;20086;-90
2021/12/01 08:49:28;;;;;;;6.00;2.05;;;;;;;4.39;100.00;99087.59;5002102;28;20082;-90
2021/12/01 08:51:56;;;;;;;6.10;1.30;;;;;;;4.49;100.00;99119.19;5003027;28;20054;-90
2021/12/01 08:54:24;;;;;;;9.63;1.60;;;;;;;4.42;100.00;99109.97;4998385;28;20062;-89
2021/12/01 08:56:51;;;;;;;6.60;1.65;;;;;;;4.62;100.00;99151.53;5007748;28;20062;-90
2021/12/01 08:59:19;;;;;;;6.50;1.40;;;;;;;3.99;100.00;99102.91;4995620;28;20082;-90
2021/12/01 09:01:45;;;;;;;8.63;1.92;;;;;;;4.18;100.00;99148.88;5007774;28;20057;-91
2021/12/01 09:04:13;;;;;;;5.38;1.42;;;;;;;4.11;100.00;99131.88;5005272;28;20077;-90
2021/12/01 09:06:41;;;;;;;12.75;2.25;;;;;;;4.24;100.00;99159.00;4999579;28;20114;-90
2021/12/01 09:09:09;;;;;;;5.07;1.40;;;;;;;4.22;100.00;99152.19;5000455;28;20054;-89
2021/12/01 09:11:37;;;;;;;7.38;1.80;;;;;;;4.52;100.00;99194.25;5005637;28;20144;-89
2021/12/01 09:14:05;;;;;;;7.63;1.30;;;;;;;4.56;100.00;99204.44;4996725;28;20093;-90
2021/12/01 09:16:34;;;;;;;9.15;2.00;;;;;;;3.75;100.00;99148.66;5011606;28;20054;-90
2021/12/01 09:19:02;;;;;;;6.82;1.83;;;;;;;4.20;100.00;99170.38;5006373;28;20062;-88
2021/12/01 09:21:30;;;;;;;5.72;1.40;;;;;;;4.43;100.00;99221.38;5010052;28;20077;-89
2021/12/01 09:24:00;;;;;;;9.27;2.80;;;;;;;4.59;100.00;99247.56;5000354;28;20050;-89
2021/12/01 09:26:28;;;;;;;7.53;2.30;;;;;;;4.50;100.00;99233.19;5000156;28;20050;-91
2021/12/01 09:28:55;;;;;;;4.25;1.33;;;;;;;4.24;100.00;99223.75;4997406;28;20065;-89
2021/12/01 09:31:23;;;;;;;8.30;1.48;;;;;;;4.65;100.00;99223.16;5004964;28;20039;-89
2021/12/01 09:33:50;;;;;;;8.77;1.88;;;;;;;4.74;100.00;99239.19;4999551;28;20062;-87
2021/12/01 09:36:17;;;;;;;5.20;1.70;;;;;;;4.34;100.00;99186.25;4995018;28;20081;-88
2021/12/01 09:38:44;;;;;;;4.55;1.80;;;;;;;4.66;100.00;99210.13;4990661;28;20054;-87
2021/12/01 09:41:12;;;;;;;9.55;1.48;;;;;;;4.85;100.00;99224.97;4997088;28;20161;-88
2021/12/01 09:43:39;;;;;;;8.98;1.80;;;;;;;4.75;100.00;99206.34;5003614;28;20082;-89
2021/12/01 09:46:09;;;;;;;6.60;1.50;;;;;;;4.80;100.00;99250.25;4988652;28;20129;-88
2021/12/01 09:48:39;;;;;;;9.10;1.90;;;;;;;4.68;100.00;99233.41;4998844;28;20410;-90
2021/12/01 09:51:14;;;;;;;8.70;1.90;;;;;;;4.98;100.00;99264.28;4997695;28;20381;-89
2021/12/01 09:53:42;;;;;;;7.22;1.80;;;;;;;4.93;100.00;99264.44;5008432;28;20121;-90
2021/12/01 09:56:13;;;;;;;6.47;1.63;;;;;;;4.60;100.00;99238.03;4992128;28;20070;-88
2021/12/01 09:58:42;;;;;;;9.05;1.80;;;;;;;4.90;100.00;99280.97;4998164;28;20078;-89
2021/12/01 10:01:16;;;;;;;6.32;1.67;;;;;;;4.78;100.00;99286.63;5003506;28;20523;-89
2021/12/01 10:03:45;;;;;;;7.45;1.83;;;;;;;4.43;100.00;99238.66;4995135;28;21059;-88
2021/12/01 10:06:17;;;;;;;14.73;3.10;;;;;;;4.53;100.00;99276.28;4996495;28;20050;-89
2021/12/01 10:08:51;;;;;;;10.73;2.60;;;;;;;4.84;100.00;99304.53;5003632;28;20137;-90
2021/12/01 10:11:30;;;;;;;13.57;2.33;;;;;;;4.69;100.00;99302.50;5003842;28;20046;-90
2021/12/01 10:13:58;;;;;;;12.20;2.20;;;;;;;4.77;100.00;99297.06;4999841;28;20061;-90
2021/12/01 10:16:31;;;;;;;11.38;3.65;;;;;;;4.98;100.00;99310.97;5006373;28;20110;-90
2021/12/01 10:19:09;;;;;;;;;;;;;;;5.33;100.00;99309.63;5011790;28;20074;-91
2021/12/01 10:21:45;;;;;;;11.18;2.97;;;;;;;5.33;100.00;99312.22;5008959;28;20013;-90
2021/12/01 10:24:18;;;;;;;8.45;2.33;;;;;;;5.14;100.00;99318.13;5009579;28;20090;-90
2021/12/01 10:26:49;;;;;;;13.93;3.42;;;;;;;5.16;100.00;99292.09;5007005;28;20046;-89
2021/12/01 10:29:23;;;;;;;8.32;2.17;;;;;;;5.37;100.00;99303.41;5007643;28;20149;-90
2021/12/01 10:32:14;;;;;;;6.15;1.92;;;;;;;5.11;100.00;99309.59;5002142;28;20046;-90
2021/12/01 10:34:56;;;;;;;15.55;2.15;;;;;;;5.23;100.00;99318.69;5009769;28;20088;-90
2021/12/01 10:37:34;;;;;;;10.63;2.00;;;;;;;5.00;100.00;99291.00;5012111;28;20058;-90
2021/12/01 10:40:14;;;;;;;14.38;2.28;;;;;;;5.07;100.00;99303.69;5005676;28;20058;-90
2021/12/01 10:43:04;;;;;;;14.10;2.03;;;;;;;5.18;100.00;99326.63;4995153;28;20181;-90
2021/12/01 10:45:36;;;;;;;6.88;2.35;;;;;;;5.35;100.00;99296.56;5008410;28;20077;-90
2021/12/01 10:48:06;;;;;;;9.65;1.83;;;;;;;5.09;100.00;99311.41;5004709;28;20054;-89
2021/12/01 10:50:37;;;;;;;10.68;2.72;;;;;;;4.80;100.00;99271.84;5010099;28;20074;-89
2021/12/01 10:53:18;;;;;;;10.75;2.30;;;;;;;5.15;100.00;99334.50;5008291;28;20056;-89
2021/12/01 10:55:57;;;;;;;8.52;1.77;;;;;;;5.33;100.00;99322.63;4994877;28;20047;-89
2021/12/01 10:58:32;;;;;;;8.98;1.75;;;;;;;5.72;100.00;99329.75;4994324;28;20149;-89
2021/12/01 11:01:01;;;;;;;7.82;1.95;;;;;;;5.44;100.00;99322.19;5002323;28;20070;-90
2021/12/01 11:03:30;;;;;;;7.15;2.20;;;;;;;5.68;100.00;99361.91;5012002;28;20049;-90
2021/12/01 11:06:07;;;;;;;9.88;2.22;;;;;;;5.41;100.00;99330.94;5003641;28;20078;-89
2021/12/01 11:08:39;;;;;;;6.82;2.25;;;;;;;5.60;100.00;99330.22;5006369;28;20050;-91
2021/12/01 11:11:14;;;;;;;11.02;3.67;;;;;;;5.68;100.00;99334.22;5006913;28;20046;-90
2021/12/01 11:14:14;;;;;;;10.95;1.88;;;;;;;4.95;100.00;99380.19;4997999;28;20516;-90
2021/12/01 11:16:42;;;;;;;8.35;1.95;;;;;;;3.85;100.00;99371.84;5000540;28;20069;-89
2021/12/01 11:19:11;;;;;;;8.48;1.75;;;;;;;4.26;100.00;99394.72;4996115;28;20074;-89
2021/12/01 11:21:39;;;;;;;9.27;1.85;;;;;;;4.31;100.00;99403.19;5012125;28;20060;-88
2021/12/01 11:24:11;;;;;;;10.75;2.13;;;;;;;4.22;100.00;99377.59;5005056;28;20619;-88
2021/12/01 11:26:42;;;;;;;8.40;2.08;;;;;;;4.54;100.00;99364.38;4998212;28;20473;-87
2021/12/01 11:29:29;;;;;;;5.65;2.03;;;;;;;4.33;100.00;99383.25;5006197;28;20051;-87
2021/12/01 11:31:55;;;;;;;6.32;1.60;;;;;;;4.70;100.00;99429.50;5000458;28;20046;-88
2021/12/01 11:34:22;;;;;;;8.77;1.88;;;;;;;4.69;100.00;99380.28;5002389;28;20468;-88
2021/12/01 11:36:52;;;;;;;8.27;2.10;;;;;;;5.13;100.00;99416.75;4997617;28;20546;-84
2021/12/01 11:39:29;;;;;;;7.30;1.90;;;;;;;4.73;100.00;99361.16;5000426;28;20495;-88
2021/12/01 11:41:57;;;;;;;6.85;2.03;;;;;;;5.24;100.00;99439.72;5010979;28;20080;-89
2021/12/01 11:44:27;;;;;;;5.72;1.33;;;;;;;5.03;100.00;99387.72;5006699;28;20084;-90
2021/12/01 11:47:03;;;;;;;7.90;1.85;;;;;;;4.78;100.00;99411.09;5007952;28;20105;-90
2021/12/01 11:49:33;;;;;;;7.88;1.70;;;;;;;4.68;100.00;99425.28;5004555;28;20072;-90
2021/12/01 11:52:08;;;;;;;9.25;1.90;;;;;;;4.32;100.00;99407.47;5009005;28;20128;-89